createdAt,value
2019-03-30T00:00:30.003Z,4.75
2019-03-30T00:02:57.774Z,5.43
2019-03-30T00:05:25.336Z,5.58
2019-03-30T00:07:52.917Z,4.93
2019-03-30T00:10:20.607Z,4.73
2019-03-30T00:12:48.262Z,4.70
2019-03-30T00:15:15.948Z,4.65
2019-03-30T00:17:43.681Z,5.53
2019-03-30T00:20:11.178Z,4.87
2019-03-30T00:22:38.829Z,4.47
2019-03-30T00:25:08.151Z,4.50
2019-03-30T00:27:35.813Z,4.87
2019-03-30T00:30:04.853Z,4.78
2019-03-30T00:32:32.556Z,4.67
2019-03-30T00:35:00.391Z,5.08
2019-03-30T00:37:28.140Z,5.08
2019-03-30T00:39:55.724Z,4.92
2019-03-30T00:42:23.217Z,4.95
2019-03-30T00:44:50.748Z,4.22
2019-03-30T00:47:18.195Z,4.80
2019-03-30T00:49:49.633Z,4.60
2019-03-30T00:52:15.054Z,5.05
2019-03-30T00:54:42.607Z,6.07
2019-03-30T00:57:10.095Z,5.35
2019-03-30T00:59:37.562Z,4.90
2019-03-30T01:02:05.047Z,4.60
2019-03-30T01:04:32.649Z,4.47
2019-03-30T01:07:00.121Z,5.58
2019-03-30T01:09:27.566Z,5.45
2019-03-30T01:11:55.227Z,4.65
2019-03-30T01:14:22.740Z,5.33
2019-03-30T01:16:50.350Z,4.30
2019-03-30T01:19:18.163Z,4.65
2019-03-30T01:21:45.776Z,5.00
2019-03-30T01:24:13.275Z,5.28
2019-03-30T01:26:40.968Z,4.25
2019-03-30T01:29:08.504Z,4.97
2019-03-30T01:31:36.174Z,5.10
2019-03-30T01:34:03.685Z,5.25
2019-03-30T01:36:31.117Z,4.33
2019-03-30T01:38:58.641Z,4.37
2019-03-30T01:41:26.120Z,4.75
2019-03-30T01:43:53.560Z,5.08
2019-03-30T01:46:21.098Z,4.20
2019-03-30T01:48:48.657Z,6.22
2019-03-30T01:51:16.166Z,5.30
2019-03-30T01:53:43.670Z,4.58
2019-03-30T01:56:11.232Z,5.47
2019-03-30T01:58:38.673Z,5.40
2019-03-30T02:01:06.384Z,4.58
2019-03-30T02:03:33.964Z,5.20
2019-03-30T02:06:01.536Z,5.28
2019-03-30T02:08:29.023Z,4.97
2019-03-30T02:10:56.451Z,4.83
2019-03-30T02:13:24.101Z,4.65
2019-03-30T02:15:51.567Z,5.60
2019-03-30T02:18:19.177Z,5.08
2019-03-30T02:20:47.161Z,5.25
2019-03-30T02:23:15.049Z,5.30
2019-03-30T02:25:42.576Z,5.28
2019-03-30T02:28:10.395Z,5.42
2019-03-30T02:30:38.004Z,5.85
2019-03-30T02:33:05.576Z,5.10
2019-03-30T02:35:33.240Z,5.75
2019-03-30T02:38:00.857Z,5.47
2019-03-30T02:40:28.750Z,5.70
2019-03-30T02:42:56.282Z,5.25
2019-03-30T02:45:23.772Z,5.95
2019-03-30T02:47:51.376Z,5.35
2019-03-30T02:50:20.651Z,5.28
2019-03-30T02:52:48.196Z,5.67
2019-03-30T02:55:16.039Z,5.45
2019-03-30T02:57:43.754Z,5.58
2019-03-30T03:00:15.640Z,5.00
2019-03-30T03:02:43.161Z,5.85
2019-03-30T03:05:11.706Z,6.00
2019-03-30T03:07:39.136Z,5.42
2019-03-30T03:10:07.467Z,5.75
2019-03-30T03:12:35.010Z,6.45
2019-03-30T03:15:03.764Z,5.90
2019-03-30T03:17:31.391Z,5.67
2019-03-30T03:19:59.189Z,6.05
2019-03-30T03:22:26.693Z,7.03
2019-03-30T03:24:54.313Z,5.62
2019-03-30T03:27:21.782Z,5.58
2019-03-30T03:29:49.237Z,6.17
2019-03-30T03:32:16.840Z,6.03
2019-03-30T03:34:44.480Z,6.28
2019-03-30T03:37:12.100Z,5.33
2019-03-30T03:39:39.659Z,6.10
2019-03-30T03:42:07.272Z,5.53
2019-03-30T03:44:34.902Z,5.75
2019-03-30T03:47:02.646Z,5.40
2019-03-30T03:49:30.312Z,6.50
2019-03-30T03:51:59.298Z,6.10
2019-03-30T03:54:27.348Z,5.67
2019-03-30T03:56:56.312Z,5.95
2019-03-30T03:59:26.066Z,6.45
2019-03-30T04:01:54.631Z,5.37
2019-03-30T04:04:24.146Z,6.60
2019-03-30T04:06:53.070Z,5.97
2019-03-30T04:09:24.445Z,6.10
2019-03-30T04:11:53.730Z,5.58
2019-03-30T04:14:24.577Z,5.95
2019-03-30T04:16:52.112Z,7.15
2019-03-30T04:19:19.641Z,6.62
2019-03-30T04:21:47.303Z,6.67
2019-03-30T04:24:15.072Z,6.12
2019-03-30T04:26:42.633Z,6.28
2019-03-30T04:29:10.219Z,5.58
2019-03-30T04:31:37.766Z,5.62
2019-03-30T04:34:05.317Z,6.40
2019-03-30T04:36:32.768Z,7.45
2019-03-30T04:39:00.287Z,6.25
2019-03-30T04:41:27.899Z,6.37
2019-03-30T04:43:55.388Z,5.80
2019-03-30T04:46:22.949Z,5.80
2019-03-30T04:48:50.623Z,5.35
2019-03-30T04:51:18.088Z,5.42
2019-03-30T04:53:45.549Z,5.65
2019-03-30T04:56:13.010Z,6.15
2019-03-30T04:58:40.500Z,7.17
2019-03-30T05:01:08.162Z,6.55
2019-03-30T05:03:35.903Z,6.00
2019-03-30T05:06:03.365Z,5.87
2019-03-30T05:08:30.895Z,6.03
2019-03-30T05:10:59.605Z,6.08
2019-03-30T05:13:27.170Z,5.95
2019-03-30T05:15:54.826Z,6.40
2019-03-30T05:18:22.413Z,6.28
2019-03-30T05:20:49.936Z,6.37
2019-03-30T05:23:17.465Z,6.53
2019-03-30T05:25:45.181Z,6.00
2019-03-30T05:28:12.814Z,5.55
2019-03-30T05:30:40.374Z,6.40
2019-03-30T05:33:07.929Z,6.60
2019-03-30T05:35:37.233Z,6.00
2019-03-30T05:38:04.812Z,6.10
2019-03-30T05:40:32.470Z,6.55
2019-03-30T05:43:00.092Z,6.15
2019-03-30T05:45:27.674Z,6.70
2019-03-30T05:47:55.289Z,6.45
2019-03-30T05:50:24.532Z,7.22
2019-03-30T05:52:52.105Z,7.62
2019-03-30T05:55:20.874Z,6.67
2019-03-30T05:57:48.388Z,6.47
2019-03-30T06:00:18.296Z,7.10
2019-03-30T06:02:45.893Z,5.90
2019-03-30T06:05:13.567Z,6.25
2019-03-30T06:07:41.165Z,7.30
2019-03-30T06:10:08.987Z,6.95
2019-03-30T06:12:36.540Z,6.53
2019-03-30T06:15:04.265Z,6.70
2019-03-30T06:17:31.941Z,6.35
2019-03-30T06:19:59.561Z,7.67
2019-03-30T06:22:39.712Z,6.97
2019-03-30T06:24:57.567Z,6.55
2019-03-30T06:27:25.153Z,6.87
2019-03-30T06:30:15.005Z,7.75
2019-03-30T06:32:43.266Z,7.67
2019-03-30T06:35:12.851Z,7.08
2019-03-30T06:37:40.500Z,7.10
2019-03-30T06:40:09.368Z,7.58
2019-03-30T06:42:37.096Z,7.80
2019-03-30T06:45:05.376Z,7.62
2019-03-30T06:47:32.835Z,8.10
2019-03-30T06:50:00.739Z,8.23
2019-03-30T06:52:28.331Z,9.38
2019-03-30T06:54:55.994Z,8.18
2019-03-30T06:57:27.224Z,8.10
2019-03-30T06:59:54.890Z,8.63
2019-03-30T07:02:24.473Z,8.68
2019-03-30T07:04:52.157Z,7.78
2019-03-30T07:07:22.157Z,9.03
2019-03-30T07:09:51.696Z,8.78
2019-03-30T07:12:22.421Z,9.23
2019-03-30T07:14:52.312Z,9.00
2019-03-30T07:17:20.248Z,8.75
2019-03-30T07:19:51.451Z,9.07
2019-03-30T07:22:19.014Z,9.60
2019-03-30T07:24:49.085Z,9.18
2019-03-30T07:27:17.781Z,10.53
2019-03-30T07:29:45.368Z,9.95
2019-03-30T07:32:13.040Z,11.67
2019-03-30T07:34:41.802Z,9.80
2019-03-30T07:37:09.760Z,9.17
2019-03-30T07:39:37.245Z,10.37
2019-03-30T07:42:04.844Z,10.47
2019-03-30T07:44:32.419Z,10.97
2019-03-30T07:47:00.031Z,11.00
2019-03-30T07:49:27.613Z,9.20
2019-03-30T07:51:55.236Z,10.33
2019-03-30T07:54:22.775Z,11.93
2019-03-30T07:57:03.913Z,10.87
2019-03-30T07:59:19.944Z,12.67
2019-03-30T08:01:47.388Z,10.67
2019-03-30T08:04:14.991Z,10.20
2019-03-30T08:06:42.441Z,14.00
2019-03-30T08:09:10.127Z,14.43
2019-03-30T08:11:37.718Z,14.37
2019-03-30T08:14:05.310Z,12.20
2019-03-30T08:16:32.888Z,13.40
2019-03-30T08:19:00.564Z,10.57
2019-03-30T08:21:28.100Z,11.77
2019-03-30T08:23:55.703Z,12.00
2019-03-30T08:26:23.272Z,11.30
2019-03-30T08:28:50.528Z,10.73
2019-03-30T08:31:18.118Z,10.03
2019-03-30T08:33:45.819Z,11.00
2019-03-30T08:36:13.421Z,11.37
2019-03-30T08:38:42.980Z,13.17
2019-03-30T08:41:10.942Z,11.97
2019-03-30T08:43:38.536Z,11.50
2019-03-30T08:46:06.317Z,11.20
2019-03-30T08:48:33.878Z,12.00
2019-03-30T08:51:01.448Z,12.00
2019-03-30T08:53:28.966Z,12.03
2019-03-30T08:55:56.662Z,12.67
2019-03-30T08:58:26.265Z,13.70
2019-03-30T09:00:53.886Z,15.33
2019-03-30T09:03:21.381Z,13.43
2019-03-30T09:05:49.123Z,12.53
2019-03-30T09:08:16.912Z,15.97
2019-03-30T09:10:44.643Z,13.57
2019-03-30T09:13:12.184Z,13.80
2019-03-30T09:15:39.732Z,16.40
2019-03-30T09:18:08.857Z,14.00
2019-03-30T09:20:36.376Z,12.67
2019-03-30T09:23:03.921Z,12.83
2019-03-30T09:25:31.522Z,12.33
2019-03-30T09:27:59.267Z,11.70
2019-03-30T09:30:27.034Z,14.70
2019-03-30T09:32:55.856Z,12.10
2019-03-30T09:35:23.565Z,12.53
2019-03-30T09:37:51.600Z,14.00
2019-03-30T09:40:19.250Z,12.87
2019-03-30T09:42:46.817Z,12.60
2019-03-30T09:45:14.434Z,14.30
2019-03-30T09:47:42.274Z,11.87
2019-03-30T09:50:10.364Z,12.00
2019-03-30T09:52:38.338Z,12.80
2019-03-30T09:55:06.529Z,12.43
2019-03-30T09:57:34.075Z,11.90
2019-03-30T10:00:01.795Z,13.37
2019-03-30T10:02:29.512Z,13.17
2019-03-30T10:04:57.089Z,11.40
2019-03-30T10:07:24.613Z,13.57
2019-03-30T10:09:52.121Z,14.07
2019-03-30T10:12:19.773Z,13.13
2019-03-30T10:14:47.376Z,13.23
2019-03-30T10:17:15.102Z,12.53
2019-03-30T10:19:42.905Z,11.70
2019-03-30T10:22:10.604Z,12.00
2019-03-30T10:24:39.912Z,12.33
2019-03-30T10:27:07.540Z,13.33
2019-03-30T10:29:35.153Z,11.90
2019-03-30T10:32:02.850Z,13.43
2019-03-30T10:34:30.618Z,14.60
2019-03-30T10:36:58.686Z,13.10
2019-03-30T10:39:26.233Z,13.77
2019-03-30T10:41:53.841Z,13.10
2019-03-30T10:44:21.789Z,12.83
2019-03-30T10:46:49.522Z,13.00
2019-03-30T10:49:17.120Z,11.40
2019-03-30T10:51:44.718Z,12.73
2019-03-30T10:54:12.337Z,11.23
2019-03-30T10:56:39.950Z,11.60
2019-03-30T10:59:07.539Z,12.47
2019-03-30T11:01:35.123Z,10.57
2019-03-30T11:04:02.764Z,11.90
2019-03-30T11:06:30.347Z,12.57
2019-03-30T11:08:57.874Z,15.00
2019-03-30T11:11:27.721Z,12.90
2019-03-30T11:13:56.204Z,12.80
2019-03-30T11:16:23.706Z,13.00
2019-03-30T11:18:51.479Z,12.70
2019-03-30T11:21:19.315Z,12.20
2019-03-30T11:23:46.928Z,12.50
2019-03-30T11:26:14.553Z,12.93
2019-03-30T11:28:42.116Z,13.20
2019-03-30T11:31:09.706Z,11.80
2019-03-30T11:33:37.642Z,15.07
2019-03-30T11:36:06.730Z,13.50
2019-03-30T11:38:34.847Z,10.93
2019-03-30T11:41:03.129Z,11.03
2019-03-30T11:43:31.160Z,14.07
2019-03-30T11:45:59.176Z,13.53
2019-03-30T11:48:27.106Z,10.90
2019-03-30T11:50:54.992Z,11.53
2019-03-30T11:53:23.149Z,11.33
2019-03-30T11:56:03.187Z,10.00
2019-03-30T11:58:30.981Z,10.63
2019-03-30T12:00:58.879Z,11.30
2019-03-30T12:03:27.768Z,11.83
2019-03-30T12:05:55.846Z,10.10
2019-03-30T12:08:23.873Z,12.20
2019-03-30T12:10:51.866Z,12.43
2019-03-30T12:13:20.073Z,12.70
2019-03-30T12:15:48.431Z,12.60
2019-03-30T12:18:16.960Z,13.70
2019-03-30T12:20:45.241Z,12.27
2019-03-30T12:23:13.785Z,8.90
2019-03-30T12:25:41.725Z,12.10
2019-03-30T12:28:09.232Z,9.77
2019-03-30T12:30:36.828Z,10.07
2019-03-30T12:33:04.322Z,10.90
2019-03-30T12:35:31.813Z,11.53
2019-03-30T12:37:59.393Z,10.67
2019-03-30T12:40:26.922Z,11.90
2019-03-30T12:42:54.468Z,14.53
2019-03-30T12:45:22.031Z,15.00
2019-03-30T12:47:49.545Z,13.97
2019-03-30T12:50:17.202Z,15.87
2019-03-30T12:52:44.785Z,13.73
2019-03-30T12:55:12.252Z,15.30
2019-03-30T12:57:40.143Z,15.13
2019-03-30T13:00:09.091Z,16.00
2019-03-30T13:02:36.693Z,12.70
2019-03-30T13:05:07.449Z,12.87
2019-03-30T13:07:35.243Z,10.13
2019-03-30T13:10:03.669Z,8.60
2019-03-30T13:12:31.337Z,11.00
2019-03-30T13:15:00.377Z,10.60
2019-03-30T13:17:27.896Z,10.03
2019-03-30T13:19:55.434Z,10.20
2019-03-30T13:22:23.015Z,10.60
2019-03-30T13:24:50.647Z,11.00
2019-03-30T13:27:18.146Z,8.87
2019-03-30T13:29:45.680Z,7.30
2019-03-30T13:32:13.120Z,8.77
2019-03-30T13:34:40.739Z,7.57
2019-03-30T13:37:21.068Z,7.90
2019-03-30T13:39:48.833Z,7.30
2019-03-30T13:42:16.317Z,7.70
2019-03-30T13:44:43.854Z,7.20
2019-03-30T13:47:11.468Z,9.07
2019-03-30T13:49:39.212Z,11.10
2019-03-30T13:52:06.908Z,10.67
2019-03-30T13:54:34.677Z,8.83
2019-03-30T13:57:02.294Z,7.87
2019-03-30T13:59:29.979Z,10.63
2019-03-30T14:01:57.558Z,8.67
2019-03-30T14:04:25.294Z,8.10
2019-03-30T14:06:52.855Z,8.20
2019-03-30T14:09:22.022Z,6.40
2019-03-30T14:11:49.814Z,7.70
2019-03-30T14:14:17.447Z,8.97
2019-03-30T14:16:45.077Z,6.70
2019-03-30T14:19:12.698Z,7.80
2019-03-30T14:21:40.214Z,8.57
2019-03-30T14:24:07.826Z,7.90
2019-03-30T14:26:35.289Z,8.30
2019-03-30T14:29:03.010Z,6.07
2019-03-30T14:31:30.592Z,6.00
2019-03-30T14:33:58.221Z,4.77
2019-03-30T14:36:25.717Z,4.10
2019-03-30T14:38:53.190Z,4.53
2019-03-30T14:41:20.836Z,4.80
2019-03-30T14:43:48.534Z,4.60
2019-03-30T14:46:16.066Z,4.40
2019-03-30T14:48:43.716Z,9.60
2019-03-30T14:51:11.308Z,7.30
2019-03-30T14:53:38.936Z,7.67
2019-03-30T14:56:06.527Z,6.17
2019-03-30T14:58:34.165Z,5.67
2019-03-30T15:01:03.332Z,6.37
2019-03-30T15:03:31.012Z,7.03
2019-03-30T15:05:58.473Z,6.33
2019-03-30T15:08:25.988Z,4.10
2019-03-30T15:10:53.655Z,5.50
2019-03-30T15:13:21.291Z,4.80
2019-03-30T15:15:48.820Z,5.00
2019-03-30T15:18:16.474Z,4.27
2019-03-30T15:20:44.056Z,4.13
2019-03-30T15:23:11.678Z,4.47
2019-03-30T15:25:39.279Z,4.13
2019-03-30T15:28:06.886Z,4.50
2019-03-30T15:30:34.523Z,4.70
2019-03-30T15:33:03.509Z,5.20
2019-03-30T15:35:31.243Z,4.77
2019-03-30T15:37:58.751Z,4.43
2019-03-30T15:40:26.353Z,4.50
2019-03-30T15:42:53.802Z,4.93
2019-03-30T15:45:21.293Z,4.70
2019-03-30T15:48:11.397Z,4.43
2019-03-30T15:50:39.071Z,3.93
2019-03-30T15:53:20.694Z,3.80
2019-03-30T15:55:48.278Z,3.60
2019-03-30T15:58:15.880Z,4.13
2019-03-30T16:00:43.481Z,4.20
2019-03-30T16:03:11.101Z,3.23
2019-03-30T16:05:38.703Z,3.33
2019-03-30T16:08:06.284Z,3.10
2019-03-30T16:10:33.901Z,4.27
2019-03-30T16:13:02.391Z,3.70
2019-03-30T16:15:29.854Z,3.10
2019-03-30T16:17:57.333Z,2.40
2019-03-30T16:20:24.887Z,3.00
2019-03-30T16:22:52.404Z,3.20
2019-03-30T16:25:19.998Z,3.77
2019-03-30T16:27:47.545Z,2.73
2019-03-30T16:30:15.528Z,2.93
2019-03-30T16:32:43.085Z,2.90
2019-03-30T16:35:10.718Z,3.23
2019-03-30T16:37:38.356Z,2.97
2019-03-30T16:40:06.475Z,2.83
2019-03-30T16:42:34.028Z,2.67
2019-03-30T16:45:01.568Z,2.40
2019-03-30T16:47:29.100Z,2.83
2019-03-30T16:49:56.614Z,3.13
2019-03-30T16:52:24.233Z,2.97
2019-03-30T16:54:51.913Z,2.93
2019-03-30T16:57:19.525Z,3.17
2019-03-30T16:59:47.009Z,3.23
2019-03-30T17:02:14.441Z,3.70
2019-03-30T17:04:42.091Z,4.63
2019-03-30T17:07:09.659Z,4.07
2019-03-30T17:09:37.198Z,3.60
2019-03-30T17:12:04.873Z,3.90
2019-03-30T17:14:32.310Z,3.60
2019-03-30T17:16:59.900Z,2.90
2019-03-30T17:19:28.885Z,2.80
2019-03-30T17:21:56.502Z,2.83
2019-03-30T17:24:24.039Z,2.93
2019-03-30T17:26:51.466Z,3.00
2019-03-30T17:29:19.055Z,2.90
2019-03-30T17:31:46.615Z,2.63
2019-03-30T17:34:14.106Z,3.00
2019-03-30T17:36:41.553Z,3.97
2019-03-30T17:39:10.671Z,3.53
2019-03-30T17:41:38.204Z,3.93
2019-03-30T17:44:05.859Z,3.90
2019-03-30T17:46:33.382Z,5.10
2019-03-30T17:49:00.972Z,5.20
2019-03-30T17:51:28.530Z,4.73
2019-03-30T17:53:56.435Z,5.33
2019-03-30T17:56:24.061Z,5.33
2019-03-30T17:58:51.984Z,5.60
2019-03-30T18:01:19.786Z,6.20
2019-03-30T18:03:47.353Z,6.73
2019-03-30T18:06:15.011Z,6.47
2019-03-30T18:08:42.664Z,5.83
2019-03-30T18:11:10.229Z,5.07
2019-03-30T18:13:37.704Z,5.33
2019-03-30T18:16:05.416Z,6.00
2019-03-30T18:18:33.579Z,6.47
2019-03-30T18:21:01.592Z,7.60
2019-03-30T18:23:29.514Z,11.17
2019-03-30T18:25:57.679Z,13.53
2019-03-30T18:28:27.322Z,15.90
2019-03-30T18:30:55.671Z,14.70
2019-03-30T18:33:23.852Z,12.30
2019-03-30T18:35:52.267Z,13.27
2019-03-30T18:38:20.081Z,11.80
2019-03-30T18:40:47.882Z,15.50
2019-03-30T18:43:15.818Z,17.90
2019-03-30T18:45:43.437Z,22.70
2019-03-30T18:48:17.570Z,22.07
2019-03-30T18:50:45.841Z,19.60
2019-03-30T18:53:14.221Z,19.37
2019-03-30T18:55:41.861Z,15.90
2019-03-30T18:58:09.692Z,13.17
2019-03-30T19:00:37.344Z,11.07
2019-03-30T19:03:05.282Z,10.53
2019-03-30T19:05:32.993Z,9.20
2019-03-30T19:08:00.936Z,9.53
2019-03-30T19:10:28.976Z,7.20
2019-03-30T19:12:56.705Z,7.40
2019-03-30T19:15:32.076Z,7.73
2019-03-30T19:17:59.739Z,7.40
2019-03-30T19:20:27.535Z,6.07
2019-03-30T19:22:55.080Z,8.20
2019-03-30T19:25:22.905Z,7.80
2019-03-30T19:27:50.726Z,6.50
2019-03-30T19:30:18.938Z,5.90
2019-03-30T19:32:46.525Z,5.40
2019-03-30T19:35:14.266Z,6.20
2019-03-30T19:37:42.024Z,5.47
2019-03-30T19:40:09.691Z,5.50
2019-03-30T19:42:37.240Z,5.07
2019-03-30T19:45:05.405Z,5.33
2019-03-30T19:47:33.148Z,6.03
2019-03-30T19:50:00.767Z,5.87
2019-03-30T19:52:39.234Z,5.40
2019-03-30T19:54:58.015Z,5.57
2019-03-30T19:57:27.690Z,6.13
2019-03-30T19:59:55.045Z,5.53
2019-03-30T20:02:22.594Z,5.10
2019-03-30T20:04:50.292Z,5.00
2019-03-30T20:07:18.211Z,4.60
2019-03-30T20:09:45.827Z,5.20
2019-03-30T20:12:13.830Z,5.17
2019-03-30T20:14:41.559Z,5.80
2019-03-30T20:17:09.246Z,5.40
2019-03-30T20:19:36.833Z,5.13
2019-03-30T20:22:05.413Z,7.57
2019-03-30T20:24:33.910Z,7.20
2019-03-30T20:27:02.030Z,6.00
2019-03-30T20:29:31.408Z,5.80
2019-03-30T20:31:59.563Z,6.60
2019-03-30T20:34:27.706Z,5.33
2019-03-30T20:36:55.758Z,6.00
2019-03-30T20:39:23.872Z,5.93
2019-03-30T20:41:53.350Z,5.50
2019-03-30T20:44:21.154Z,5.97
2019-03-30T20:46:48.732Z,5.73
2019-03-30T20:49:16.405Z,5.53
2019-03-30T20:51:44.076Z,5.97
2019-03-30T20:54:11.645Z,6.47
2019-03-30T20:56:40.080Z,5.07
2019-03-30T20:59:07.701Z,5.80
2019-03-30T21:01:38.317Z,6.00
2019-03-30T21:04:05.256Z,5.87
2019-03-30T21:06:32.970Z,6.53
2019-03-30T21:09:00.511Z,6.57
2019-03-30T21:11:28.236Z,6.10
2019-03-30T21:13:56.900Z,6.37
2019-03-30T21:16:24.517Z,6.97
2019-03-30T21:18:52.141Z,6.20
2019-03-30T21:21:19.757Z,7.40
2019-03-30T21:23:47.470Z,8.43
2019-03-30T21:26:15.030Z,6.60
2019-03-30T21:28:42.637Z,7.50
2019-03-30T21:31:10.162Z,9.00
2019-03-30T21:33:38.098Z,9.90
2019-03-30T21:36:05.685Z,8.80
2019-03-30T21:38:33.282Z,9.70
2019-03-30T21:41:00.948Z,9.33
2019-03-30T21:43:31.642Z,9.93
2019-03-30T21:45:59.195Z,8.77
2019-03-30T21:48:26.883Z,11.90
2019-03-30T21:50:54.360Z,13.50
2019-03-30T21:53:22.080Z,14.07
2019-03-30T21:55:49.765Z,10.47
2019-03-30T21:58:17.373Z,9.50
2019-03-30T22:00:45.004Z,9.23
2019-03-30T22:03:12.642Z,11.20
2019-03-30T22:05:40.190Z,13.00
2019-03-30T22:08:07.827Z,16.33
2019-03-30T22:10:35.467Z,13.00
2019-03-30T22:13:03.307Z,12.47
2019-03-30T22:15:30.912Z,12.40
2019-03-30T22:17:58.549Z,10.63
2019-03-30T22:20:26.332Z,9.60
2019-03-30T22:22:54.040Z,11.20
2019-03-30T22:25:21.631Z,10.10
2019-03-30T22:27:49.160Z,9.50
2019-03-30T22:30:24.788Z,10.67
2019-03-30T22:32:46.298Z,12.63
2019-03-30T22:35:13.945Z,12.57
2019-03-30T22:37:41.668Z,11.93
2019-03-30T22:40:09.424Z,10.40
2019-03-30T22:42:36.909Z,9.50
2019-03-30T22:45:05.257Z,10.07
2019-03-30T22:47:32.995Z,9.83
2019-03-30T22:50:00.603Z,9.33
2019-03-30T22:52:28.321Z,9.80
2019-03-30T22:54:55.930Z,10.47
2019-03-30T22:57:23.512Z,10.50
2019-03-30T22:59:51.136Z,9.50
2019-03-30T23:02:18.737Z,9.30
2019-03-30T23:04:46.313Z,8.00
2019-03-30T23:07:13.880Z,9.50
2019-03-30T23:09:41.465Z,10.50
2019-03-30T23:12:09.052Z,9.20
2019-03-30T23:14:36.680Z,9.83
2019-03-30T23:17:04.200Z,10.40
2019-03-30T23:19:31.913Z,10.80
2019-03-30T23:21:59.546Z,9.10
2019-03-30T23:24:27.235Z,9.40
2019-03-30T23:26:54.765Z,8.40
2019-03-30T23:29:22.289Z,7.93
2019-03-30T23:31:49.938Z,8.20
2019-03-30T23:34:17.609Z,8.53
2019-03-30T23:36:45.265Z,8.53
2019-03-30T23:39:13.044Z,7.03
2019-03-30T23:41:40.616Z,8.30
2019-03-30T23:44:08.218Z,7.00
2019-03-30T23:46:35.910Z,7.03
2019-03-30T23:49:03.499Z,7.40
2019-03-30T23:51:31.199Z,7.73
2019-03-30T23:53:58.748Z,8.53
2019-03-30T23:56:26.508Z,8.37
2019-03-30T23:58:54.070Z,7.00
